Time;durP1;ratioP1;P1;durP2;ratioP2;P2;SDS_P1;SDS_P2;PMS_P1;PMS_P2;Temp;Humidity;BMP_temperature;BMP_pressure;BME280_temperature;BME280_humidity;BME280_pressure;Samples;Min_cycle;Max_cycle;Signal;HPM_P1;HPM_P2
2023/07/18 00:01:20;;;;;;;5.73;3.20;;;17.10;99.90;;;;;;5069291;28;20186;-31
2023/07/18 00:03:45;;;;;;;4.90;3.47;;;17.10;99.90;;;;;;5038086;28;20181;-28
2023/07/18 00:06:11;;;;;;;5.00;3.30;;;17.10;99.90;;;;;;5043517;28;20189;-29
2023/07/18 00:08:39;;;;;;;5.55;3.45;;;17.10;99.90;;;;;;5038613;28;20679;-29
2023/07/18 00:11:04;;;;;;;6.35;4.20;;;17.10;99.90;;;;;;5045711;28;20296;-28
2023/07/18 00:13:30;;;;;;;5.20;3.75;;;17.10;99.90;;;;;;5054704;28;20277;-30
2023/07/18 00:15:56;;;;;;;6.18;4.00;;;17.10;99.90;;;;;;5038585;28;20367;-29
2023/07/18 00:18:22;;;;;;;4.30;3.90;;;17.20;99.90;;;;;;5053722;28;20202;-29
2023/07/18 00:20:48;;;;;;;5.15;3.70;;;17.20;99.90;;;;;;5056415;28;20182;-29
2023/07/18 00:23:14;;;;;;;4.25;3.28;;;17.20;99.90;;;;;;5052075;28;20264;-29
2023/07/18 00:25:40;;;;;;;7.35;4.25;;;17.10;99.90;;;;;;5051929;28;20178;-30
2023/07/18 00:28:06;;;;;;;4.00;3.50;;;17.10;99.90;;;;;;5055059;28;20244;-30
2023/07/18 00:30:31;;;;;;;4.70;3.43;;;17.00;99.90;;;;;;5084837;28;20197;-29
2023/07/18 00:32:57;;;;;;;9.33;3.60;;;16.90;99.90;;;;;;5065372;28;20189;-30
2023/07/18 00:35:24;;;;;;;5.30;3.50;;;16.90;99.90;;;;;;5049421;28;20203;-29
2023/07/18 00:37:50;;;;;;;6.33;3.87;;;16.80;99.90;;;;;;5064041;28;20192;-29
2023/07/18 00:40:16;;;;;;;4.97;3.80;;;16.70;99.90;;;;;;5054691;28;20174;-28
2023/07/18 00:42:45;;;;;;;5.20;3.60;;;16.70;99.90;;;;;;5038113;28;20182;-29
2023/07/18 00:45:11;;;;;;;5.17;3.57;;;16.70;99.90;;;;;;5050713;28;20186;-29
2023/07/18 00:47:44;;;;;;;5.17;3.43;;;16.60;99.90;;;;;;5053860;28;20265;-28
2023/07/18 00:50:14;;;;;;;8.27;4.23;;;16.70;99.90;;;;;;5065698;28;20197;-29
2023/07/18 00:52:45;;;;;;;5.93;3.40;;;16.60;99.90;;;;;;5056600;28;20231;-30
2023/07/18 00:55:13;;;;;;;5.20;3.50;;;16.60;99.90;;;;;;5061239;28;20185;-29
2023/07/18 00:57:40;;;;;;;4.95;3.78;;;16.40;99.90;;;;;;5054002;28;20710;-29
2023/07/18 01:00:11;;;;;;;4.67;3.20;;;16.40;99.90;;;;;;5034810;28;20202;-29
2023/07/18 01:02:43;;;;;;;4.13;3.20;;;16.30;99.90;;;;;;5039538;28;20185;-29
2023/07/18 01:05:11;;;;;;;6.83;3.47;;;16.30;99.90;;;;;;5029802;28;20191;-28
2023/07/18 01:07:40;;;;;;;5.97;3.20;;;16.30;99.90;;;;;;5033812;28;20178;-28
2023/07/18 01:10:32;;;;;;;8.37;3.83;;;16.30;99.90;;;;;;5062129;28;20221;-28
2023/07/18 01:12:59;;;;;;;4.50;3.23;;;16.20;99.90;;;;;;5040923;28;20194;-28
2023/07/18 01:15:28;;;;;;;6.07;3.53;;;16.00;99.90;;;;;;5063528;28;20213;-28
2023/07/18 01:17:54;;;;;;;5.23;3.20;;;16.00;99.90;;;;;;5055212;28;20194;-29
2023/07/18 01:20:29;;;;;;;6.10;3.30;;;16.00;99.90;;;;;;5051625;28;20188;-29
2023/07/18 01:23:00;;;;;;;4.90;3.23;;;16.00;99.90;;;;;;5036208;28;20255;-29
2023/07/18 01:25:26;;;;;;;6.57;3.23;;;16.00;99.90;;;;;;5056866;28;20178;-29
2023/07/18 01:27:55;;;;;;;4.20;2.97;;;15.90;99.90;;;;;;5054814;28;20208;-29
2023/07/18 01:30:26;;;;;;;5.53;3.07;;;15.90;99.90;;;;;;5053956;28;20201;-29
2023/07/18 01:32:52;;;;;;;7.03;3.47;;;15.80;99.90;;;;;;5050135;28;20178;-29
2023/07/18 01:35:20;;;;;;;6.40;3.03;;;15.80;99.90;;;;;;5041237;28;20248;-28
2023/07/18 01:37:48;;;;;;;6.10;3.17;;;15.70;99.90;;;;;;5034023;28;20174;-30
2023/07/18 01:40:15;;;;;;;3.60;2.90;;;15.70;99.90;;;;;;5034148;28;20209;-29
2023/07/18 01:42:45;;;;;;;3.47;3.03;;;15.70;99.90;;;;;;5036468;28;20193;-29
2023/07/18 01:45:11;;;;;;;4.90;3.10;;;15.70;99.90;;;;;;5032933;28;20182;-30
2023/07/18 01:47:40;;;;;;;8.23;3.50;;;15.70;99.90;;;;;;5049994;28;20182;-30
2023/07/18 01:50:07;;;;;;;4.23;3.20;;;15.70;99.90;;;;;;5050705;28;20205;-30
2023/07/18 01:52:34;;;;;;;6.13;3.30;;;15.70;99.90;;;;;;5057477;28;20182;-29
2023/07/18 01:55:02;;;;;;;5.97;2.90;;;15.70;99.90;;;;;;5051468;28;20282;-30
2023/07/18 01:57:30;;;;;;;6.60;3.20;;;15.60;99.90;;;;;;5033627;28;20178;-30
2023/07/18 01:59:59;;;;;;;7.53;3.63;;;15.60;99.90;;;;;;5045955;28;20208;-30
2023/07/18 02:02:25;;;;;;;6.00;3.40;;;15.50;99.90;;;;;;5032590;28;20228;-30
2023/07/18 02:04:51;;;;;;;4.93;3.00;;;15.50;99.90;;;;;;5059533;28;20181;-29
2023/07/18 02:07:16;;;;;;;3.63;2.90;;;15.50;99.90;;;;;;5041888;28;20240;-30
2023/07/18 02:09:42;;;;;;;4.60;3.37;;;15.60;99.90;;;;;;5041382;28;20189;-30
2023/07/18 02:12:08;;;;;;;5.07;2.73;;;15.50;99.90;;;;;;5038584;28;20761;-30
2023/07/18 02:14:38;;;;;;;7.07;3.10;;;15.60;99.90;;;;;;5033273;28;20229;-30
2023/07/18 02:17:04;;;;;;;4.87;3.03;;;15.50;99.90;;;;;;5034960;28;20182;-30
2023/07/18 02:19:30;;;;;;;7.80;3.87;;;15.60;99.90;;;;;;5033561;28;20228;-30
2023/07/18 02:21:56;;;;;;;4.00;2.97;;;15.50;99.90;;;;;;5033031;28;20214;-29
2023/07/18 02:24:22;;;;;;;3.70;2.80;;;15.50;99.90;;;;;;5049871;28;20244;-29
2023/07/18 02:26:48;;;;;;;6.03;3.20;;;15.50;99.90;;;;;;5066481;28;20205;-30
2023/07/18 02:29:15;;;;;;;5.97;3.17;;;15.40;99.90;;;;;;5049763;28;20201;-30
2023/07/18 02:31:43;;;;;;;9.00;3.20;;;15.30;99.90;;;;;;5047331;28;20202;-30
2023/07/18 02:34:10;;;;;;;5.53;3.03;;;15.20;99.90;;;;;;5051627;28;20182;-30
2023/07/18 02:36:36;;;;;;;4.60;3.03;;;15.10;99.90;;;;;;5039649;28;20178;-30
2023/07/18 02:39:03;;;;;;;5.53;3.23;;;15.10;99.90;;;;;;5030440;28;20228;-29
2023/07/18 02:41:29;;;;;;;5.53;3.13;;;15.00;99.90;;;;;;5031702;28;20645;-30
2023/07/18 02:43:55;;;;;;;5.67;3.10;;;15.10;99.90;;;;;;5050477;28;20185;-30
2023/07/18 02:46:21;;;;;;;4.57;2.70;;;15.00;99.90;;;;;;5045004;28;20182;-30
2023/07/18 02:48:46;;;;;;;7.70;3.10;;;15.00;99.90;;;;;;5040981;28;20204;-30
2023/07/18 02:51:12;;;;;;;5.73;3.30;;;14.90;99.90;;;;;;5038447;28;20287;-29
2023/07/18 02:53:39;;;;;;;4.77;3.03;;;14.90;99.90;;;;;;5040721;28;20177;-30
2023/07/18 02:56:06;;;;;;;6.00;3.27;;;14.80;99.90;;;;;;5045351;28;20185;-31
2023/07/18 02:58:32;;;;;;;4.77;3.00;;;14.80;99.90;;;;;;5054525;28;20251;-29
2023/07/18 03:00:59;;;;;;;3.63;2.93;;;14.80;99.90;;;;;;5040763;28;20178;-29
2023/07/18 03:03:26;;;;;;;7.83;3.30;;;14.80;99.90;;;;;;5036530;28;20236;-29
2023/07/18 03:05:56;;;;;;;4.13;3.30;;;14.80;99.90;;;;;;5037327;28;20174;-30
2023/07/18 03:08:22;;;;;;;6.83;2.80;;;14.80;99.90;;;;;;5035698;28;20198;-29
2023/07/18 03:10:48;;;;;;;3.70;2.70;;;14.80;99.90;;;;;;5039675;28;20194;-30
2023/07/18 03:13:14;;;;;;;4.97;3.20;;;14.70;99.90;;;;;;5049245;28;20186;-29
2023/07/18 03:15:41;;;;;;;6.13;2.87;;;14.70;99.90;;;;;;5053794;28;20202;-31
2023/07/18 03:18:07;;;;;;;5.47;3.00;;;14.70;99.90;;;;;;5061347;28;20252;-30
2023/07/18 03:20:33;;;;;;;6.07;3.50;;;14.70;99.90;;;;;;5044605;28;20186;-29
2023/07/18 03:22:59;;;;;;;5.70;3.27;;;14.70;99.90;;;;;;5044046;28;20185;-30
2023/07/18 03:25:25;;;;;;;5.60;3.23;;;14.60;99.90;;;;;;5029528;28;20185;-31
2023/07/18 03:27:52;;;;;;;5.70;3.60;;;14.60;99.90;;;;;;5052542;28;20182;-30
2023/07/18 03:30:18;;;;;;;6.40;3.53;;;14.60;99.90;;;;;;5029599;28;20201;-30
2023/07/18 03:32:44;;;;;;;5.00;3.10;;;14.60;99.90;;;;;;5046873;28;20197;-30
2023/07/18 03:35:11;;;;;;;5.97;3.37;;;14.60;99.90;;;;;;5045787;28;20213;-29
2023/07/18 03:37:37;;;;;;;4.90;3.30;;;14.50;99.90;;;;;;5036599;28;20182;-30
2023/07/18 03:40:06;;;;;;;3.93;2.87;;;14.50;99.90;;;;;;5047176;28;20185;-29
2023/07/18 03:42:32;;;;;;;7.97;3.57;;;14.50;99.90;;;;;;5031989;28;20205;-29
2023/07/18 03:44:58;;;;;;;4.40;3.23;;;14.40;99.90;;;;;;5045694;28;20181;-30
2023/07/18 03:47:24;;;;;;;5.73;3.83;;;14.40;99.90;;;;;;5047338;28;20182;-30
2023/07/18 03:49:50;;;;;;;6.93;3.53;;;14.30;99.90;;;;;;5049008;28;20271;-30
2023/07/18 03:52:16;;;;;;;5.77;4.03;;;14.30;99.90;;;;;;5031127;28;20182;-30
2023/07/18 03:54:43;;;;;;;6.17;4.20;;;14.30;99.90;;;;;;5040290;28;20189;-30
2023/07/18 03:57:09;;;;;;;5.40;4.30;;;14.30;99.90;;;;;;5049554;28;20189;-30
2023/07/18 03:59:35;;;;;;;5.73;4.00;;;14.30;99.90;;;;;;5036153;28;20218;-31
2023/07/18 04:02:00;;;;;;;6.43;4.23;;;14.40;99.90;;;;;;5031467;28;20186;-29
2023/07/18 04:04:29;;;;;;;8.60;5.13;;;14.50;99.90;;;;;;5031621;28;20236;-30
2023/07/18 04:06:55;;;;;;;7.53;4.77;;;14.60;99.90;;;;;;5046225;28;20205;-31
2023/07/18 04:09:21;;;;;;;6.30;4.20;;;14.60;99.90;;;;;;5046689;28;20284;-30
2023/07/18 04:11:48;;;;;;;7.33;4.53;;;14.60;99.90;;;;;;5050649;28;20213;-30
2023/07/18 04:14:15;;;;;;;8.50;4.27;;;14.60;99.90;;;;;;5055121;28;20240;-29
2023/07/18 04:16:42;;;;;;;6.43;4.07;;;14.70;99.90;;;;;;5040165;28;20184;-30
2023/07/18 04:19:08;;;;;;;6.40;3.67;;;14.70;99.90;;;;;;5049172;28;20265;-30
2023/07/18 04:21:34;;;;;;;6.37;3.60;;;14.50;99.90;;;;;;5050371;28;20178;-29
2023/07/18 04:24:00;;;;;;;5.30;3.77;;;14.40;99.90;;;;;;5055093;28;20185;-29
2023/07/18 04:26:26;;;;;;;4.20;2.93;;;14.30;99.90;;;;;;5035285;28;20247;-30
2023/07/18 04:28:52;;;;;;;6.40;3.43;;;14.40;99.90;;;;;;5059198;28;20197;-28
2023/07/18 04:31:19;;;;;;;8.27;3.80;;;14.40;99.90;;;;;;5051344;28;20220;-30
2023/07/18 04:33:45;;;;;;;7.90;3.70;;;14.40;99.90;;;;;;5036594;28;20202;-30
2023/07/18 04:36:11;;;;;;;5.37;3.50;;;14.50;99.90;;;;;;5038099;28;20186;-29
2023/07/18 04:38:37;;;;;;;4.53;3.37;;;14.50;99.90;;;;;;5034970;28;20201;-30
2023/07/18 04:41:04;;;;;;;5.47;3.50;;;14.50;99.90;;;;;;5054295;28;20178;-31
2023/07/18 04:43:30;;;;;;;4.73;3.40;;;14.50;99.90;;;;;;5041554;28;20224;-30
2023/07/18 04:45:56;;;;;;;4.93;3.93;;;14.60;99.90;;;;;;5051526;28;20189;-29
2023/07/18 04:48:21;;;;;;;7.33;3.90;;;14.60;99.90;;;;;;5066783;28;20201;-29
2023/07/18 04:50:57;;;;;;;5.67;3.60;;;14.60;99.90;;;;;;5037781;28;20213;-31
2023/07/18 04:53:26;;;;;;;5.90;3.87;;;14.70;99.90;;;;;;5068642;28;20177;-30
2023/07/18 04:55:51;;;;;;;5.23;3.73;;;14.70;99.90;;;;;;5053405;28;20215;-30
2023/07/18 04:58:18;;;;;;;6.70;4.50;;;14.80;99.90;;;;;;5052827;28;20244;-29
2023/07/18 05:00:44;;;;;;;6.13;3.77;;;14.90;99.90;;;;;;5050188;28;20193;-29
2023/07/18 05:03:10;;;;;;;6.57;3.70;;;15.00;99.90;;;;;;5050835;28;20182;-29
2023/07/18 05:05:36;;;;;;;6.00;3.90;;;15.00;99.90;;;;;;5050406;28;20253;-30
2023/07/18 05:08:03;;;;;;;7.23;4.00;;;15.00;99.90;;;;;;5034728;28;20312;-30
2023/07/18 05:10:29;;;;;;;7.57;3.97;;;15.00;99.90;;;;;;5051610;28;20656;-29
2023/07/18 05:12:56;;;;;;;6.93;3.93;;;15.10;99.90;;;;;;5062255;28;20185;-30
2023/07/18 05:15:23;;;;;;;8.73;4.43;;;15.10;99.90;;;;;;5049258;28;20287;-30
2023/07/18 05:17:50;;;;;;;6.70;4.10;;;15.20;99.90;;;;;;5051052;28;20169;-30
2023/07/18 05:20:16;;;;;;;6.60;4.27;;;15.30;99.90;;;;;;5034509;28;20186;-30
2023/07/18 05:22:44;;;;;;;3.93;3.50;;;15.40;99.90;;;;;;5048893;28;20192;-30
2023/07/18 05:25:16;;;;;;;5.00;4.13;;;15.50;99.90;;;;;;5034996;28;20186;-30
2023/07/18 05:27:42;;;;;;;7.73;4.07;;;15.60;99.90;;;;;;5049595;28;20243;-29
2023/07/18 05:30:16;;;;;;;9.30;4.47;;;15.70;99.90;;;;;;5049213;28;20182;-30
2023/07/18 05:32:43;;;;;;;5.70;4.17;;;15.80;99.90;;;;;;5070145;28;20212;-30
2023/07/18 05:35:15;;;;;;;8.47;4.37;;;15.90;99.90;;;;;;5048992;28;20197;-29
2023/07/18 05:37:42;;;;;;;7.53;4.60;;;16.00;99.90;;;;;;5046743;28;20185;-30
2023/07/18 05:40:12;;;;;;;8.40;4.63;;;16.20;99.90;;;;;;5038753;28;20185;-30
2023/07/18 05:42:39;;;;;;;5.63;4.13;;;16.30;99.90;;;;;;5033675;28;20263;-30
2023/07/18 05:45:09;;;;;;;7.60;4.10;;;16.40;99.90;;;;;;5048162;28;20186;-30
2023/07/18 05:47:38;;;;;;;9.63;4.63;;;16.60;99.90;;;;;;5033092;28;20189;-31
2023/07/18 05:50:05;;;;;;;6.47;4.03;;;16.70;99.90;;;;;;5034252;28;20182;-31
2023/07/18 05:52:31;;;;;;;8.50;4.60;;;16.80;99.90;;;;;;5039664;28;20277;-30
2023/07/18 05:54:57;;;;;;;4.53;3.87;;;17.00;99.90;;;;;;5029810;28;20191;-29
2023/07/18 05:57:23;;;;;;;7.83;4.20;;;17.10;99.90;;;;;;5036606;28;20182;-29
2023/07/18 05:59:49;;;;;;;5.67;4.57;;;17.30;99.90;;;;;;5034921;28;20194;-30
2023/07/18 06:02:16;;;;;;;5.80;3.90;;;17.50;99.90;;;;;;5050247;28;20609;-30
2023/07/18 06:04:42;;;;;;;8.43;4.17;;;17.50;99.90;;;;;;5033293;28;20274;-30
2023/07/18 06:07:08;;;;;;;6.77;3.87;;;17.50;99.90;;;;;;5033567;28;20263;-30
2023/07/18 06:09:34;;;;;;;6.25;3.75;;;17.70;99.90;;;;;;5040884;28;20209;-30
2023/07/18 06:12:00;;;;;;;5.20;3.72;;;17.80;99.90;;;;;;5050171;28;20209;-30
2023/07/18 06:14:26;;;;;;;6.88;3.95;;;17.90;99.90;;;;;;5033722;28;20194;-30
2023/07/18 06:16:52;;;;;;;5.32;3.72;;;18.00;99.90;;;;;;5033420;28;20177;-30
2023/07/18 06:19:18;;;;;;;9.32;4.95;;;18.10;99.90;;;;;;5033502;28;20213;-30
2023/07/18 06:21:44;;;;;;;5.18;4.28;;;18.30;99.90;;;;;;5046881;28;20182;-32
2023/07/18 06:24:10;;;;;;;8.18;4.45;;;18.40;99.90;;;;;;5061702;28;20645;-30
2023/07/18 06:26:36;;;;;;;6.38;3.97;;;18.60;99.90;;;;;;5054323;28;20200;-30
2023/07/18 06:29:02;;;;;;;6.15;3.78;;;18.70;99.90;;;;;;5053954;28;20208;-30
2023/07/18 06:31:28;;;;;;;4.78;4.20;;;18.90;99.90;;;;;;5039442;28;20205;-29
2023/07/18 06:33:54;;;;;;;6.05;4.43;;;19.10;99.90;;;;;;5033035;28;20192;-30
2023/07/18 06:36:21;;;;;;;6.30;3.88;;;19.30;99.90;;;;;;5044141;28;20181;-30
2023/07/18 06:38:47;;;;;;;6.18;4.10;;;19.40;99.90;;;;;;5059926;28;20297;-30
2023/07/18 06:41:13;;;;;;;6.30;3.92;;;19.50;99.90;;;;;;5051220;28;20231;-30
2023/07/18 06:43:39;;;;;;;4.97;4.07;;;19.60;99.90;;;;;;5051791;28;20190;-30
2023/07/18 06:46:05;;;;;;;4.70;3.85;;;19.70;99.90;;;;;;5059643;28;20340;-30
2023/07/18 06:48:31;;;;;;;5.65;3.70;;;19.80;99.90;;;;;;5059824;28;20687;-30
2023/07/18 06:50:59;;;;;;;5.25;3.60;;;19.70;99.90;;;;;;5034756;28;20198;-30
2023/07/18 06:53:26;;;;;;;5.07;3.38;;;19.70;99.90;;;;;;5059567;28;20186;-30
2023/07/18 06:55:53;;;;;;;4.88;3.90;;;19.90;99.90;;;;;;5048222;28;20178;-31
2023/07/18 06:58:19;;;;;;;6.53;3.33;;;20.10;99.90;;;;;;5031751;28;20259;-30
2023/07/18 07:00:46;;;;;;;6.00;3.78;;;20.20;99.90;;;;;;5049508;28;20185;-31
2023/07/18 07:03:14;;;;;;;7.00;4.00;;;20.30;99.90;;;;;;5048463;28;20181;-30
2023/07/18 07:05:42;;;;;;;6.65;3.45;;;20.50;99.90;;;;;;5037215;28;20266;-30
2023/07/18 07:08:12;;;;;;;5.13;3.50;;;20.60;99.90;;;;;;5044176;28;20210;-30
2023/07/18 07:10:40;;;;;;;3.92;3.53;;;20.70;99.90;;;;;;5058340;28;20206;-30
2023/07/18 07:13:06;;;;;;;5.65;3.20;;;20.80;99.90;;;;;;5049022;28;20186;-31
2023/07/18 07:15:35;;;;;;;5.40;3.35;;;20.80;99.90;;;;;;5056494;28;20190;-31
2023/07/18 07:18:02;;;;;;;6.13;3.45;;;21.00;99.90;;;;;;5056481;28;20216;-31
2023/07/18 07:20:30;;;;;;;5.68;2.95;;;21.10;99.90;;;;;;5059226;28;20190;-30
2023/07/18 07:22:57;;;;;;;4.40;2.90;;;21.20;99.90;;;;;;5032665;28;20182;-31
2023/07/18 07:25:26;;;;;;;5.65;3.22;;;21.40;99.90;;;;;;5040522;28;20185;-31
2023/07/18 07:27:52;;;;;;;7.72;3.33;;;21.50;99.90;;;;;;5032593;28;20276;-30
2023/07/18 07:30:18;;;;;;;4.22;3.10;;;21.60;99.90;;;;;;5031652;28;20328;-30
2023/07/18 07:32:45;;;;;;;5.10;3.20;;;21.70;99.90;;;;;;5052596;28;20230;-31
2023/07/18 07:35:11;;;;;;;5.68;3.03;;;21.90;99.90;;;;;;5060334;28;20214;-31
2023/07/18 07:37:40;;;;;;;3.45;2.58;;;21.90;99.90;;;;;;5028682;28;20213;-31
2023/07/18 07:40:11;;;;;;;3.38;2.28;;;22.00;99.90;;;;;;5030911;28;20181;-31
2023/07/18 07:42:42;;;;;;;4.78;2.55;;;22.00;99.90;;;;;;5044271;28;20228;-30
2023/07/18 07:45:08;;;;;;;5.60;2.83;;;22.20;99.90;;;;;;5036475;28;20185;-31
2023/07/18 07:47:34;;;;;;;6.07;2.40;;;22.30;99.90;;;;;;5034783;28;20182;-31
2023/07/18 07:50:01;;;;;;;5.80;2.63;;;22.50;99.90;;;;;;5041764;28;20189;-31
2023/07/18 07:52:28;;;;;;;5.57;2.53;;;22.40;99.90;;;;;;5051834;28;20174;-30
2023/07/18 07:54:54;;;;;;;4.82;2.47;;;22.60;99.90;;;;;;5052756;28;20188;-30
2023/07/18 07:57:21;;;;;;;5.07;2.38;;;22.80;99.90;;;;;;5045833;28;20280;-30
2023/07/18 07:59:48;;;;;;;5.40;2.17;;;22.80;99.90;;;;;;5042839;28;20205;-31
2023/07/18 08:02:14;;;;;;;6.13;2.30;;;22.90;99.90;;;;;;5053853;28;20192;-32
2023/07/18 08:04:41;;;;;;;5.38;2.67;;;23.10;99.90;;;;;;5056803;28;20199;-31
2023/07/18 08:07:08;;;;;;;3.08;2.53;;;23.30;99.90;;;;;;5040465;28;20204;-30
2023/07/18 08:09:34;;;;;;;3.50;2.47;;;23.40;99.90;;;;;;5053966;28;20227;-31
2023/07/18 08:12:00;;;;;;;4.13;2.17;;;23.50;99.90;;;;;;5034968;28;20209;-30
2023/07/18 08:14:26;;;;;;;4.00;2.17;;;23.60;99.90;;;;;;5052915;28;20197;-30
2023/07/18 08:16:53;;;;;;;2.90;2.20;;;23.70;99.90;;;;;;5049059;28;20185;-30
2023/07/18 08:19:18;;;;;;;6.47;2.35;;;23.70;99.90;;;;;;5056694;28;20202;-31
2023/07/18 08:21:47;;;;;;;3.70;2.38;;;23.80;99.90;;;;;;5073225;28;20177;-30
2023/07/18 08:24:14;;;;;;;6.05;2.40;;;24.00;99.90;;;;;;5068081;28;20189;-31
2023/07/18 08:26:40;;;;;;;4.70;2.80;;;24.10;99.90;;;;;;5044917;28;20212;-31
2023/07/18 08:29:06;;;;;;;3.95;2.60;;;24.40;99.90;;;;;;5052990;28;20202;-30
2023/07/18 08:31:32;;;;;;;4.05;2.63;;;24.60;99.90;;;;;;5050581;28;20205;-31
2023/07/18 08:33:58;;;;;;;7.88;2.60;;;24.60;99.90;;;;;;5066558;28;20189;-31
2023/07/18 08:36:25;;;;;;;4.65;2.70;;;24.70;99.90;;;;;;5054151;28;20185;-32
2023/07/18 08:38:51;;;;;;;4.35;2.40;;;24.80;99.90;;;;;;5056050;28;20292;-31
2023/07/18 08:41:19;;;;;;;3.78;2.75;;;25.00;99.90;;;;;;5047861;28;20186;-31
2023/07/18 08:43:50;;;;;;;3.53;2.53;;;25.10;99.90;;;;;;5052473;28;20178;-31
2023/07/18 08:46:16;;;;;;;3.97;2.33;;;25.20;99.90;;;;;;5042476;28;20189;-31
2023/07/18 08:48:47;;;;;;;6.25;2.33;;;25.40;99.90;;;;;;5035273;28;20205;-30
2023/07/18 08:51:14;;;;;;;4.28;2.78;;;25.70;99.90;;;;;;5050926;28;20335;-31
2023/07/18 08:53:40;;;;;;;3.85;2.47;;;25.70;99.90;;;;;;5063176;28;20174;-30
2023/07/18 08:56:10;;;;;;;3.20;2.65;;;25.70;99.90;;;;;;5034638;28;20182;-31
2023/07/18 08:58:37;;;;;;;4.13;2.53;;;25.70;99.90;;;;;;5054407;28;20206;-32
2023/07/18 09:01:06;;;;;;;3.95;2.70;;;25.70;99.90;;;;;;5037075;28;20173;-31
2023/07/18 09:03:35;;;;;;;4.38;2.63;;;25.80;99.90;;;;;;5034439;28;20185;-31
2023/07/18 09:06:02;;;;;;;2.33;2.13;;;26.00;99.90;;;;;;5051393;28;20189;-31
2023/07/18 09:08:41;;;;;;;3.40;2.10;;;26.30;99.90;;;;;;5053540;28;20202;-31
2023/07/18 09:11:08;;;;;;;3.72;2.30;;;26.40;99.90;;;;;;5049777;28;20296;-30
2023/07/18 09:13:41;;;;;;;3.30;2.15;;;26.50;99.90;;;;;;5034366;28;20205;-30
2023/07/18 09:16:17;;;;;;;5.78;2.50;;;26.80;99.90;;;;;;5035454;28;20194;-30
2023/07/18 09:18:57;;;;;;;2.83;2.22;;;26.80;99.90;;;;;;5034482;28;20209;-31
2023/07/18 09:21:24;;;;;;;7.57;2.70;;;27.00;99.90;;;;;;5050798;28;20188;-31
2023/07/18 09:23:50;;;;;;;4.50;2.42;;;27.10;99.90;;;;;;5038387;28;20184;-31
2023/07/18 09:26:21;;;;;;;4.43;2.45;;;27.20;99.90;;;;;;5035228;28;20209;-32
2023/07/18 09:28:48;;;;;;;4.85;2.55;;;27.20;99.90;;;;;;5049891;28;20241;-32
2023/07/18 09:31:21;;;;;;;3.80;2.65;;;27.30;99.90;;;;;;5051803;28;20279;-32
2023/07/18 09:33:49;;;;;;;4.00;2.35;;;27.20;99.90;;;;;;5032966;28;20185;-30
2023/07/18 09:36:24;;;;;;;5.75;2.42;;;27.10;99.90;;;;;;5052294;28;20170;-31
2023/07/18 09:38:51;;;;;;;6.00;2.58;;;27.00;99.90;;;;;;5036713;28;20228;-30
2023/07/18 09:41:21;;;;;;;3.90;2.60;;;27.20;99.90;;;;;;5050288;28;20182;-31
2023/07/18 09:43:51;;;;;;;5.38;2.90;;;27.30;99.90;;;;;;5040670;28;20176;-31
2023/07/18 09:46:18;;;;;;;6.38;2.67;;;27.30;99.90;;;;;;5049905;28;20182;-28
2023/07/18 09:48:45;;;;;;;3.15;2.30;;;27.30;99.90;;;;;;5036312;28;20202;-30
2023/07/18 09:51:15;;;;;;;2.70;2.50;;;27.30;99.90;;;;;;5035422;28;20216;-31
2023/07/18 09:53:46;;;;;;;4.10;2.70;;;27.20;99.90;;;;;;5049753;28;20186;-31
2023/07/18 09:56:14;;;;;;;3.50;2.80;;;27.40;99.90;;;;;;5050254;28;20197;-31
2023/07/18 09:58:43;;;;;;;4.55;2.80;;;27.50;99.90;;;;;;5066356;28;20201;-31
2023/07/18 10:01:13;;;;;;;6.32;3.55;;;27.30;99.90;;;;;;5030065;28;20240;-31
2023/07/18 10:03:40;;;;;;;4.03;2.65;;;27.00;99.90;;;;;;5049568;28;20182;-31
2023/07/18 10:06:09;;;;;;;4.53;3.10;;;26.90;99.90;;;;;;5033149;28;20190;-30
2023/07/18 10:08:40;;;;;;;3.30;2.72;;;26.80;99.90;;;;;;5032600;28;20263;-31
2023/07/18 10:11:11;;;;;;;4.50;2.90;;;26.80;99.90;;;;;;5049732;28;20209;-31
2023/07/18 10:14:02;;;;;;;4.60;3.13;;;26.70;99.90;;;;;;5050401;28;20177;-31
2023/07/18 10:16:28;;;;;;;5.13;3.10;;;26.50;99.90;;;;;;5014861;28;20186;-31
2023/07/18 10:18:54;;;;;;;5.22;2.67;;;26.40;99.90;;;;;;5033818;28;20232;-32
2023/07/18 10:21:30;;;;;;;4.20;2.90;;;26.20;99.90;;;;;;5049616;28;20181;-29
2023/07/18 10:23:56;;;;;;;5.72;3.10;;;26.20;99.90;;;;;;5044966;28;20181;-30
2023/07/18 10:26:32;;;;;;;4.18;2.85;;;26.30;99.90;;;;;;5032919;28;20194;-30
2023/07/18 10:29:01;;;;;;;4.13;2.80;;;26.40;99.90;;;;;;5035916;28;20291;-31
2023/07/18 10:31:36;;;;;;;6.13;3.17;;;26.40;99.90;;;;;;5048718;28;20209;-32
2023/07/18 10:34:16;;;;;;;5.45;2.95;;;26.40;99.90;;;;;;5031181;28;20196;-29
2023/07/18 10:36:58;;;;;;;5.55;3.20;;;26.50;99.90;;;;;;5051166;28;20174;-29
2023/07/18 10:39:49;;;;;;;4.93;2.90;;;26.90;99.90;;;;;;5049132;28;20190;-31
2023/07/18 10:42:28;;;;;;;5.22;3.50;;;27.20;99.90;;;;;;5034156;28;20332;-29
2023/07/18 10:44:58;;;;;;;4.40;3.00;;;27.30;99.90;;;;;;5051730;28;20194;-29
2023/07/18 10:47:26;;;;;;;3.70;2.85;;;27.30;99.90;;;;;;5049528;28;20311;-30
2023/07/18 10:49:52;;;;;;;4.20;3.08;;;27.40;99.90;;;;;;5064551;28;20198;-29
2023/07/18 10:52:20;;;;;;;4.15;2.83;;;27.50;99.90;;;;;;5047109;28;20202;-30
2023/07/18 10:55:07;;;;;;;6.03;3.30;;;27.40;99.90;;;;;;5060556;28;20170;-31
2023/07/18 10:57:34;;;;;;;3.30;3.00;;;27.20;99.90;;;;;;5033187;28;20207;-30
2023/07/18 11:00:04;;;;;;;4.60;3.17;;;27.00;99.90;;;;;;5037882;28;20281;-28
2023/07/18 11:02:39;;;;;;;4.70;2.97;;;26.90;99.90;;;;;;5048724;28;20174;-30
2023/07/18 11:05:12;;;;;;;4.45;2.83;;;26.80;99.90;;;;;;5038599;28;20191;-31
2023/07/18 11:07:43;;;;;;;3.47;2.78;;;26.70;99.90;;;;;;5084350;28;20272;-29
2023/07/18 11:10:10;;;;;;;3.72;3.05;;;26.60;99.90;;;;;;5046403;28;20179;-30
2023/07/18 11:12:37;;;;;;;4.88;2.72;;;26.50;99.90;;;;;;5051465;28;20185;-29
2023/07/18 11:15:07;;;;;;;4.47;2.83;;;26.50;99.90;;;;;;5062965;28;20200;-29
2023/07/18 11:17:34;;;;;;;5.97;3.00;;;26.30;99.90;;;;;;5048646;28;20178;-30
2023/07/18 11:20:01;;;;;;;5.05;2.75;;;26.20;99.90;;;;;;5035355;28;20230;-29
2023/07/18 11:22:28;;;;;;;4.15;3.00;;;26.10;99.90;;;;;;5049050;28;20185;-30
2023/07/18 11:24:55;;;;;;;4.22;2.97;;;25.90;99.90;;;;;;5043221;28;20190;-30
2023/07/18 11:27:26;;;;;;;4.40;3.22;;;25.60;99.90;;;;;;5032881;28;20186;-30
2023/07/18 11:30:04;;;;;;;4.00;3.13;;;25.50;99.90;;;;;;5043580;28;20243;-29
2023/07/18 11:32:45;;;;;;;4.75;3.40;;;25.20;99.90;;;;;;5033735;28;20210;-30
2023/07/18 11:35:18;;;;;;;6.70;3.17;;;25.10;99.90;;;;;;5049417;28;20189;-29
2023/07/18 11:37:46;;;;;;;7.18;3.30;;;24.90;99.90;;;;;;5051510;28;20207;-30
2023/07/18 11:40:25;;;;;;;4.10;2.67;;;24.90;99.90;;;;;;5035785;28;20186;-31
2023/07/18 11:42:58;;;;;;;8.13;3.10;;;24.90;99.90;;;;;;5048482;28;20242;-30
2023/07/18 11:45:28;;;;;;;5.07;3.20;;;24.90;99.90;;;;;;5044876;28;20182;-30
2023/07/18 11:48:00;;;;;;;6.15;3.00;;;24.70;99.90;;;;;;5030452;28;20198;-30
2023/07/18 11:50:27;;;;;;;6.10;3.22;;;24.60;99.90;;;;;;5049758;28;20178;-30
2023/07/18 11:52:56;;;;;;;5.97;3.70;;;24.60;99.90;;;;;;5052516;28;20241;-29
2023/07/18 11:55:23;;;;;;;5.43;3.60;;;24.60;99.90;;;;;;5051078;28;20243;-29
2023/07/18 11:57:50;;;;;;;6.03;3.58;;;24.60;99.90;;;;;;5044511;28;20332;-30
2023/07/18 12:00:17;;;;;;;6.38;3.67;;;24.60;99.90;;;;;;5052492;28;20242;-30
2023/07/18 12:02:44;;;;;;;6.32;3.50;;;24.70;99.90;;;;;;5046625;28;20207;-30
2023/07/18 12:05:14;;;;;;;5.15;3.30;;;24.70;99.90;;;;;;5044217;28;20178;-29
2023/07/18 12:07:40;;;;;;;3.53;3.20;;;24.60;99.90;;;;;;5036347;28;20202;-29
2023/07/18 12:10:07;;;;;;;5.90;3.30;;;24.60;99.90;;;;;;5055072;28;20239;-30
2023/07/18 12:12:38;;;;;;;5.28;3.47;;;24.60;99.90;;;;;;5032953;28;20197;-31
2023/07/18 12:15:07;;;;;;;9.23;3.25;;;24.60;99.90;;;;;;5051319;28;20194;-30
2023/07/18 12:17:33;;;;;;;5.28;2.90;;;24.70;99.90;;;;;;5048045;28;20178;-29
2023/07/18 12:19:59;;;;;;;8.13;3.50;;;24.80;99.90;;;;;;5034303;28;20239;-30
2023/07/18 12:22:25;;;;;;;4.00;3.42;;;24.90;99.90;;;;;;5032516;28;20236;-30
2023/07/18 12:24:51;;;;;;;5.57;3.30;;;24.90;99.90;;;;;;5045318;28;20186;-29
2023/07/18 12:27:18;;;;;;;4.25;3.10;;;25.00;99.90;;;;;;5049453;28;20182;-30
2023/07/18 12:29:45;;;;;;;4.72;3.05;;;25.10;99.90;;;;;;5046979;28;20210;-30
2023/07/18 12:32:11;;;;;;;5.40;3.17;;;25.30;99.90;;;;;;5053764;28;20287;-28
2023/07/18 12:34:39;;;;;;;4.20;3.20;;;25.30;99.90;;;;;;5039371;28;20177;-30
2023/07/18 12:37:06;;;;;;;3.47;3.13;;;25.50;99.90;;;;;;5038243;28;20186;-29
2023/07/18 12:39:32;;;;;;;6.43;3.40;;;25.60;99.90;;;;;;5036810;28;20563;-29
2023/07/18 12:41:58;;;;;;;3.75;3.03;;;25.90;99.90;;;;;;5054085;28;20186;-30
2023/07/18 12:44:38;;;;;;;5.93;3.28;;;26.00;99.90;;;;;;5043545;28;20181;-30
2023/07/18 12:47:04;;;;;;;6.75;3.03;;;26.30;99.90;;;;;;5055052;28;20181;-31
2023/07/18 12:49:30;;;;;;;4.78;3.35;;;26.30;99.90;;;;;;5050434;28;20198;-31
2023/07/18 12:51:57;;;;;;;4.60;3.40;;;26.20;99.90;;;;;;5032720;28;20202;-30